High Spirits — WUT2131 — position and weather

sailwx.info

Track history (hours):
 
Tides and Currents Weather Stations Pressure Air Temp Water Temp Dewpoint Dewpoint Depression Visibility Wind Speed Wind Dir Waves Ship Positions

High Spirits

Owner: Hornblower Cruises and Events, SAN DIEGO, CA. More information available from US FCC via Universal Licensing System and Coast Guard Vessel Documentation Center.

Last reported at 2017-Sep-22 01:47 UTC. Time now 2017-Sep-24 16:00 UTC.
Position N 32°43' W 117°11'.

Length 34 m; draft 1.2 m.

Type: Passenger vessel. MMSI: 366987070.

Date/timePositionNaut miles runAvg speedWind from/ knotsBaromVisibWave heightAir tempDewpointWater temp
2017-Sep-22 01:47N 32°43' W 117°11'1 1.4
2017-Sep-22 01:22N 32°43' W 117°11'3 7.5
2017-Sep-22 01:01N 32°42' W 117°14'3 3.6
2017-Sep-22 00:10N 32°43' W 117°11'2 8.5
2017-Sep-21 23:59N 32°42' W 117°09'1 1.5
2017-Sep-21 23:29N 32°42' W 117°10'1 1.8
2017-Sep-21 23:01N 32°43' W 117°11'0 0.1
2017-Sep-21 22:30N 32°43' W 117°11'0 0.0
2017-Sep-21 03:47N 32°43' W 117°11'1 3.8
2017-Sep-21 03:31N 32°42' W 117°10'1 1.0
2017-Sep-21 02:54N 32°42' W 117°10'1 2.3
2017-Sep-21 02:22N 32°41' W 117°10'1 2.8
2017-Sep-21 01:51N 32°42' W 117°10'2 6.1
2017-Sep-21 01:30N 32°43' W 117°12'1 1.9
2017-Sep-21 01:00N 32°42' W 117°13'3 5.7
2017-Sep-21 00:30N 32°42' W 117°10'0 0.0
2017-Sep-21 00:00N 32°42' W 117°10'1 0.0
2017-Sep-19 02:28N 32°43' W 117°11'2 3.4
2017-Sep-19 01:47N 32°41' W 117°09'2 6.0
2017-Sep-19 01:29N 32°42' W 117°11'1 0.0
2017-Sep-18 01:51N 32°43' W 117°11'1 1.1
2017-Sep-18 01:21N 32°43' W 117°11'3 7.9
2017-Sep-18 01:00N 32°42' W 117°14'3 3.6
2017-Sep-18 00:07N 32°42' W 117°10'1 8.5
2017-Sep-17 23:59N 32°42' W 117°09'3 0.1
2017-Sep-17 01:18N 32°43' W 117°13'1 4.3
2017-Sep-17 01:00N 32°42' W 117°14'3 3.7
2017-Sep-17 00:16N 32°43' W 117°11'3 9.8
2017-Sep-16 23:58N 32°41' W 117°08'4 4.2
2017-Sep-16 22:57N 32°43' W 117°12'0 0.7
2017-Sep-16 22:30N 32°43' W 117°13'2 2.3
2017-Sep-16 21:46N 32°43' W 117°11'3 6.6
2017-Sep-16 21:20N 32°41' W 117°08'3 8.6
2017-Sep-16 21:00N 32°43' W 117°11'1 2.3
2017-Sep-16 20:29N 32°43' W 117°12'0 1.0
2017-Sep-16 20:00N 32°43' W 117°13'2 2.1
2017-Sep-16 19:15N 32°43' W 117°11'310.6
2017-Sep-16 19:00N 32°41' W 117°09'3 4.8
2017-Sep-16 18:28N 32°43' W 117°11'0 0.0
2017-Sep-16 18:00N 32°43' W 117°11'3 5.8
2017-Sep-16 17:30N 32°42' W 117°14'2 0.1
2017-Sep-16 01:18N 32°43' W 117°12'2 5.4
2017-Sep-16 01:00N 32°42' W 117°14'3 3.5
2017-Sep-16 00:09N 32°43' W 117°10'210.0
2017-Sep-16 00:00N 32°42' W 117°09'2 3.0
2017-Sep-15 23:29N 32°42' W 117°11'2 2.4
2017-Sep-15 22:51N 32°43' W 117°12'1 3.6
2017-Sep-15 22:30N 32°42' W 117°14'3 3.1
2017-Sep-15 21:40N 32°43' W 117°11'2 8.8
2017-Sep-15 21:29N 32°42' W 117°09'1 2.5
2017-Sep-15 20:55N 32°43' W 117°11'0 0.9
2017-Sep-15 20:24N 32°43' W 117°11'3 7.1
2017-Sep-15 20:00N 32°42' W 117°14'3 3.4
2017-Sep-15 19:07N 32°43' W 117°10'210.5
2017-Sep-15 18:57N 32°41' W 117°09'2 4.0
2017-Sep-15 18:27N 32°43' W 117°11'0 0.9
2017-Sep-15 17:59N 32°43' W 117°11'2 5.0
2017-Sep-15 17:31N 32°43' W 117°14'3 0.2
2017-Sep-15 04:44N 32°43' W 117°11'1 5.4
2017-Sep-15 04:30N 32°42' W 117°10'1 1.8
2017-Sep-15 03:57N 32°42' W 117°11'2 4.9
2017-Sep-15 03:30N 32°43' W 117°13'1 2.4
2017-Sep-15 03:00N 32°42' W 117°14'2 4.9
2017-Sep-15 02:30N 32°43' W 117°12'1 0.0
2017-Sep-13 01:49N 32°43' W 117°10'1 1.5
2017-Sep-13 01:28N 32°43' W 117°10'3 6.9
2017-Sep-13 01:00N 32°42' W 117°14'3 3.6
2017-Sep-13 00:09N 32°43' W 117°11'1 7.2
2017-Sep-12 23:59N 32°42' W 117°10'1 1.1
2017-Sep-12 23:30N 32°42' W 117°10'1 1.0
2017-Sep-12 22:40N 32°43' W 117°11'0 0.0
2017-Sep-12 01:57N 32°43' W 117°11'  
Track history (hours):
 
Tides and Currents Weather Stations Pressure Air Temp Water Temp Dewpoint Dewpoint Depression Visibility Wind Speed Wind Dir Waves Ship Positions

High Spirits

Owner: Hornblower Cruises and Events, SAN DIEGO, CA. More information available from US FCC via Universal Licensing System and Coast Guard Vessel Documentation Center.

Last reported at 2017-Sep-22 01:47 UTC. Time now 2017-Sep-24 16:00 UTC.
Position N 32°43' W 117°11'.

Length 34 m; draft 1.2 m.

Type: Passenger vessel. MMSI: 366987070.

Date/timePositionNaut miles runAvg speedWind from/ knotsBaromVisibWave heightAir tempDewpointWater temp
2017-Sep-22 01:47N 32°43' W 117°11'1 1.4
2017-Sep-22 01:22N 32°43' W 117°11'3 7.5
2017-Sep-22 01:01N 32°42' W 117°14'3 3.6
2017-Sep-22 00:10N 32°43' W 117°11'2 8.5
2017-Sep-21 23:59N 32°42' W 117°09'1 1.5
2017-Sep-21 23:29N 32°42' W 117°10'1 1.8
2017-Sep-21 23:01N 32°43' W 117°11'0 0.1
2017-Sep-21 22:30N 32°43' W 117°11'0 0.0
2017-Sep-21 03:47N 32°43' W 117°11'1 3.8
2017-Sep-21 03:31N 32°42' W 117°10'1 1.0
2017-Sep-21 02:54N 32°42' W 117°10'1 2.3
2017-Sep-21 02:22N 32°41' W 117°10'1 2.8
2017-Sep-21 01:51N 32°42' W 117°10'2 6.1
2017-Sep-21 01:30N 32°43' W 117°12'1 1.9
2017-Sep-21 01:00N 32°42' W 117°13'3 5.7
2017-Sep-21 00:30N 32°42' W 117°10'0 0.0
2017-Sep-21 00:00N 32°42' W 117°10'1 0.0
2017-Sep-19 02:28N 32°43' W 117°11'2 3.4
2017-Sep-19 01:47N 32°41' W 117°09'2 6.0
2017-Sep-19 01:29N 32°42' W 117°11'1 0.0
2017-Sep-18 01:51N 32°43' W 117°11'1 1.1
2017-Sep-18 01:21N 32°43' W 117°11'3 7.9
2017-Sep-18 01:00N 32°42' W 117°14'3 3.6
2017-Sep-18 00:07N 32°42' W 117°10'1 8.5
2017-Sep-17 23:59N 32°42' W 117°09'3 0.1
2017-Sep-17 01:18N 32°43' W 117°13'1 4.3
2017-Sep-17 01:00N 32°42' W 117°14'3 3.7
2017-Sep-17 00:16N 32°43' W 117°11'3 9.8
2017-Sep-16 23:58N 32°41' W 117°08'4 4.2
2017-Sep-16 22:57N 32°43' W 117°12'0 0.7
2017-Sep-16 22:30N 32°43' W 117°13'2 2.3
2017-Sep-16 21:46N 32°43' W 117°11'3 6.6
2017-Sep-16 21:20N 32°41' W 117°08'3 8.6
2017-Sep-16 21:00N 32°43' W 117°11'1 2.3
2017-Sep-16 20:29N 32°43' W 117°12'0 1.0
2017-Sep-16 20:00N 32°43' W 117°13'2 2.1
2017-Sep-16 19:15N 32°43' W 117°11'310.6
2017-Sep-16 19:00N 32°41' W 117°09'3 4.8
2017-Sep-16 18:28N 32°43' W 117°11'0 0.0
2017-Sep-16 18:00N 32°43' W 117°11'3 5.8
2017-Sep-16 17:30N 32°42' W 117°14'2 0.1
2017-Sep-16 01:18N 32°43' W 117°12'2 5.4
2017-Sep-16 01:00N 32°42' W 117°14'3 3.5
2017-Sep-16 00:09N 32°43' W 117°10'210.0
2017-Sep-16 00:00N 32°42' W 117°09'2 3.0
2017-Sep-15 23:29N 32°42' W 117°11'2 2.4
2017-Sep-15 22:51N 32°43' W 117°12'1 3.6
2017-Sep-15 22:30N 32°42' W 117°14'3 3.1
2017-Sep-15 21:40N 32°43' W 117°11'2 8.8
2017-Sep-15 21:29N 32°42' W 117°09'1 2.5
2017-Sep-15 20:55N 32°43' W 117°11'0 0.9
2017-Sep-15 20:24N 32°43' W 117°11'3 7.1
2017-Sep-15 20:00N 32°42' W 117°14'3 3.4
2017-Sep-15 19:07N 32°43' W 117°10'210.5
2017-Sep-15 18:57N 32°41' W 117°09'2 4.0
2017-Sep-15 18:27N 32°43' W 117°11'0 0.9
2017-Sep-15 17:59N 32°43' W 117°11'2 5.0
2017-Sep-15 17:31N 32°43' W 117°14'3 0.2
2017-Sep-15 04:44N 32°43' W 117°11'1 5.4
2017-Sep-15 04:30N 32°42' W 117°10'1 1.8
2017-Sep-15 03:57N 32°42' W 117°11'2 4.9
2017-Sep-15 03:30N 32°43' W 117°13'1 2.4
2017-Sep-15 03:00N 32°42' W 117°14'2 4.9
2017-Sep-15 02:30N 32°43' W 117°12'1 0.0
2017-Sep-13 01:49N 32°43' W 117°10'1 1.5
2017-Sep-13 01:28N 32°43' W 117°10'3 6.9
2017-Sep-13 01:00N 32°42' W 117°14'3 3.6
2017-Sep-13 00:09N 32°43' W 117°11'1 7.2
2017-Sep-12 23:59N 32°42' W 117°10'1 1.1
2017-Sep-12 23:30N 32°42' W 117°10'1 1.0
2017-Sep-12 22:40N 32°43' W 117°11'0 0.0
2017-Sep-12 01:57N 32°43' W 117°11'  

Dump ship's entire track history